Rechercher aéroport 
image banner adimage banner adimage banner ad
image banner ad

KPRB - Paso Robles Muni

Situé à Paso Robles, United States

ICAO - PRB, IATA -

Données fournies par Airmate  

Information générale

Coordonnées: N35°40'22" W120°37'37"
Élévation : 839 feet MSL.
Variation magnétique : 15° East
Voir autres Aéroports à California

Données opérationnelles

Special qualification required
Heure actuelle UTC:
Heure actuelle locale:
Météo
METAR: KPRB 262253Z AUTO 20013KT 10SM CLR 28/11 A2992 RMK AO2 SLP125 T02830111
TAF: KPRB 261740Z 2618/2718 19005KT P6SM BKN120 FM261900 21010KT P6SM VCSH BKN120 FM262100 20015G25KT P6SM VCSH BKN120 FM270300 19007KT P6SM BKN120
Voir NOTAMs / SUP AIP / TFR affectant cet aéroport [VIEW]
Fréquences de communication: [VIEW]

Pistes:

Identifiant RWYQFULongueur (ft)Largeur (ft)SurfaceLDA (ft)
0129°6008150ASPH
19209°6008150ASPH
13144°4701100ASPH
31324°4701100ASPH

Coordonnées de l'aéroport

Adresse: Paso Robles United States

Autres services d'aviation

Écoles de pilotage

Del Rio Aviation, Inc

Del Rio Aviation, Inc
delriousa@thegrid.net+1(805)238-0800

Vue satellite de KPRB